Sveti Ilia — LZMM — position and weather

sailwx.info

Track history (hours):
 
Tides and Currents Weather Stations Pressure Air Temp Water Temp Dewpoint Dewpoint Depression Visibility Wind Speed Wind Dir Waves Ship Positions

Sveti Ilia

Last reported at 2017-Nov-04 15:07 UTC. Time now 2017-Nov-19 14:14 UTC.
Position N 48°13' E 016°25'.
Warning: this ship's position is 14 days out of date.

Length 90 m; draft 0.3 m.

Type: Ship. MMSI: 207261313.

Date/timePositionNaut miles runAvg speedWind from/ knotsBaromVisibWave heightAir tempDewpointWater temp
2017-Nov-04 15:07N 48°13' E 016°25'3 4.3
2017-Nov-04 14:30N 48°12' E 016°27'17 0.7
2017-Nov-03 14:15N 48°08' E 016°52'1 0.8
2017-Nov-03 13:35N 48°08' E 016°53'0 1.4
2017-Nov-03 13:26N 48°08' E 016°53'0 1.0
2017-Nov-03 12:59N 48°08' E 016°54'1 1.2
2017-Nov-03 12:25N 48°09' E 016°55'0 0.6
2017-Nov-03 11:58N 48°09' E 016°55'0 0.9
2017-Nov-03 11:30N 48°09' E 016°56'1 1.3
2017-Nov-03 10:59N 48°09' E 016°57'1 1.0
2017-Nov-03 10:29N 48°10' E 016°57'1 1.2
2017-Nov-03 10:00N 48°10' E 016°57'1 1.0
2017-Nov-03 09:25N 48°10' E 016°58'1 0.8
2017-Nov-03 08:43N 48°10' E 016°59'0 1.3
2017-Nov-03 08:22N 48°10' E 016°59'1 1.5
2017-Nov-03 08:00N 48°10' E 016°60'1 1.3
2017-Nov-03 07:23N 48°09' E 017°01'1 1.4
2017-Nov-03 06:58N 48°09' E 017°01'1 1.2
2017-Nov-03 06:27N 48°08' E 017°02'1 1.5
2017-Nov-03 05:58N 48°09' E 017°03'1 1.4
2017-Nov-03 05:30N 48°09' E 017°04'1 1.5
2017-Nov-03 04:59N 48°08' E 017°05'1 1.7
2017-Nov-03 04:29N 48°08' E 017°07'1 2.1
2017-Nov-03 03:55N 48°08' E 017°08'1 2.2
2017-Nov-03 03:28N 48°07' E 017°09'1 2.6
2017-Nov-03 02:57N 48°06' E 017°09'1 2.3
2017-Nov-03 02:30N 48°05' E 017°09'0 0.0
2017-Nov-03 01:59N 48°05' E 017°09'0 0.0
2017-Nov-03 01:25N 48°05' E 017°09'0 0.0
2017-Nov-03 00:59N 48°05' E 017°09'0 0.0
2017-Nov-03 00:29N 48°05' E 017°09'0 0.0
2017-Nov-02 23:59N 48°05' E 017°09'0 0.0
2017-Nov-02 23:28N 48°05' E 017°09'0 0.0
2017-Nov-02 22:59N 48°05' E 017°09'0 0.0
2017-Nov-02 22:28N 48°05' E 017°09'0 0.0
2017-Nov-02 22:00N 48°05' E 017°09'0 0.0
2017-Nov-02 21:27N 48°05' E 017°09'0 0.0
2017-Nov-02 20:58N 48°05' E 017°09'0 0.0
2017-Nov-02 20:29N 48°05' E 017°09'0 0.0
2017-Nov-02 19:59N 48°05' E 017°09'0 0.0
2017-Nov-02 19:28N 48°05' E 017°09'1 2.5
2017-Nov-02 19:01N 48°04' E 017°10'2 4.1
2017-Nov-02 18:31N 48°03' E 017°13'2 4.4
2017-Nov-02 18:00N 48°01' E 017°15'2 4.9
2017-Nov-02 17:30N 48°00' E 017°18'2 5.0
2017-Nov-02 17:01N 47°60' E 017°22'2 4.8
2017-Nov-02 16:31N 47°58' E 017°25'2 4.9
2017-Nov-02 16:01N 47°56' E 017°27'2 4.9
2017-Nov-02 15:31N 47°55' E 017°30'2 4.8
2017-Nov-02 15:00N 47°53' E 017°32'0 0.3
2017-Nov-02 14:26N 47°53' E 017°33'2 5.2
2017-Nov-02 14:00N 47°51' E 017°34'2 4.5
2017-Nov-02 13:29N 47°49' E 017°37'15 2.2
2017-Nov-02 06:56N 47°45' E 017°58'4 3.0
2017-Nov-02 05:39N 47°45' E 018°03'1 3.4
2017-Nov-02 05:25N 47°45' E 018°05'  
2017-Oct-26 11:44N 47°38' E 019°06'1 3.6
2017-Oct-26 11:20N 47°36' E 019°05'1 3.7
2017-Oct-26 11:01N 47°35' E 019°04'2 3.2
2017-Oct-26 10:31N 47°34' E 019°04'2 3.4
2017-Oct-26 10:00N 47°32' E 019°03'2 3.3
2017-Oct-26 09:31N 47°31' E 019°03'2 3.7
2017-Oct-26 09:00N 47°29' E 019°04'2 3.2
2017-Oct-26 08:31N 47°27' E 019°04'2 3.0
2017-Oct-26 08:00N 47°26' E 019°03'1 2.5
2017-Oct-26 07:30N 47°25' E 019°03'1 2.8
2017-Oct-26 06:59N 47°23' E 019°01'  
Track history (hours):
 
Tides and Currents Weather Stations Pressure Air Temp Water Temp Dewpoint Dewpoint Depression Visibility Wind Speed Wind Dir Waves Ship Positions

Sveti Ilia

Last reported at 2017-Nov-04 15:07 UTC. Time now 2017-Nov-19 14:14 UTC.
Position N 48°13' E 016°25'.
Warning: this ship's position is 14 days out of date.

Length 90 m; draft 0.3 m.

Type: Ship. MMSI: 207261313.

Date/timePositionNaut miles runAvg speedWind from/ knotsBaromVisibWave heightAir tempDewpointWater temp
2017-Nov-04 15:07N 48°13' E 016°25'3 4.3
2017-Nov-04 14:30N 48°12' E 016°27'17 0.7
2017-Nov-03 14:15N 48°08' E 016°52'1 0.8
2017-Nov-03 13:35N 48°08' E 016°53'0 1.4
2017-Nov-03 13:26N 48°08' E 016°53'0 1.0
2017-Nov-03 12:59N 48°08' E 016°54'1 1.2
2017-Nov-03 12:25N 48°09' E 016°55'0 0.6
2017-Nov-03 11:58N 48°09' E 016°55'0 0.9
2017-Nov-03 11:30N 48°09' E 016°56'1 1.3
2017-Nov-03 10:59N 48°09' E 016°57'1 1.0
2017-Nov-03 10:29N 48°10' E 016°57'1 1.2
2017-Nov-03 10:00N 48°10' E 016°57'1 1.0
2017-Nov-03 09:25N 48°10' E 016°58'1 0.8
2017-Nov-03 08:43N 48°10' E 016°59'0 1.3
2017-Nov-03 08:22N 48°10' E 016°59'1 1.5
2017-Nov-03 08:00N 48°10' E 016°60'1 1.3
2017-Nov-03 07:23N 48°09' E 017°01'1 1.4
2017-Nov-03 06:58N 48°09' E 017°01'1 1.2
2017-Nov-03 06:27N 48°08' E 017°02'1 1.5
2017-Nov-03 05:58N 48°09' E 017°03'1 1.4
2017-Nov-03 05:30N 48°09' E 017°04'1 1.5
2017-Nov-03 04:59N 48°08' E 017°05'1 1.7
2017-Nov-03 04:29N 48°08' E 017°07'1 2.1
2017-Nov-03 03:55N 48°08' E 017°08'1 2.2
2017-Nov-03 03:28N 48°07' E 017°09'1 2.6
2017-Nov-03 02:57N 48°06' E 017°09'1 2.3
2017-Nov-03 02:30N 48°05' E 017°09'0 0.0
2017-Nov-03 01:59N 48°05' E 017°09'0 0.0
2017-Nov-03 01:25N 48°05' E 017°09'0 0.0
2017-Nov-03 00:59N 48°05' E 017°09'0 0.0
2017-Nov-03 00:29N 48°05' E 017°09'0 0.0
2017-Nov-02 23:59N 48°05' E 017°09'0 0.0
2017-Nov-02 23:28N 48°05' E 017°09'0 0.0
2017-Nov-02 22:59N 48°05' E 017°09'0 0.0
2017-Nov-02 22:28N 48°05' E 017°09'0 0.0
2017-Nov-02 22:00N 48°05' E 017°09'0 0.0
2017-Nov-02 21:27N 48°05' E 017°09'0 0.0
2017-Nov-02 20:58N 48°05' E 017°09'0 0.0
2017-Nov-02 20:29N 48°05' E 017°09'0 0.0
2017-Nov-02 19:59N 48°05' E 017°09'0 0.0
2017-Nov-02 19:28N 48°05' E 017°09'1 2.5
2017-Nov-02 19:01N 48°04' E 017°10'2 4.1
2017-Nov-02 18:31N 48°03' E 017°13'2 4.4
2017-Nov-02 18:00N 48°01' E 017°15'2 4.9
2017-Nov-02 17:30N 48°00' E 017°18'2 5.0
2017-Nov-02 17:01N 47°60' E 017°22'2 4.8
2017-Nov-02 16:31N 47°58' E 017°25'2 4.9
2017-Nov-02 16:01N 47°56' E 017°27'2 4.9
2017-Nov-02 15:31N 47°55' E 017°30'2 4.8
2017-Nov-02 15:00N 47°53' E 017°32'0 0.3
2017-Nov-02 14:26N 47°53' E 017°33'2 5.2
2017-Nov-02 14:00N 47°51' E 017°34'2 4.5
2017-Nov-02 13:29N 47°49' E 017°37'15 2.2
2017-Nov-02 06:56N 47°45' E 017°58'4 3.0
2017-Nov-02 05:39N 47°45' E 018°03'1 3.4
2017-Nov-02 05:25N 47°45' E 018°05'  
2017-Oct-26 11:44N 47°38' E 019°06'1 3.6
2017-Oct-26 11:20N 47°36' E 019°05'1 3.7
2017-Oct-26 11:01N 47°35' E 019°04'2 3.2
2017-Oct-26 10:31N 47°34' E 019°04'2 3.4
2017-Oct-26 10:00N 47°32' E 019°03'2 3.3
2017-Oct-26 09:31N 47°31' E 019°03'2 3.7
2017-Oct-26 09:00N 47°29' E 019°04'2 3.2
2017-Oct-26 08:31N 47°27' E 019°04'2 3.0
2017-Oct-26 08:00N 47°26' E 019°03'1 2.5
2017-Oct-26 07:30N 47°25' E 019°03'1 2.8
2017-Oct-26 06:59N 47°23' E 019°01'  

Dump ship's entire track history